createdAt,value
2019-03-08T00:04:03.099Z,99.90
2019-03-08T00:08:07.539Z,99.90
2019-03-08T00:12:11.956Z,99.90
2019-03-08T00:16:16.541Z,99.90
2019-03-08T00:20:21.596Z,99.90
2019-03-08T00:24:27.259Z,99.90
2019-03-08T00:28:31.808Z,99.90
2019-03-08T00:32:36.379Z,99.90
2019-03-08T00:36:41.149Z,99.90
2019-03-08T00:40:45.630Z,99.90
2019-03-08T00:44:50.014Z,99.90
2019-03-08T00:48:54.494Z,99.90
2019-03-08T00:52:59.124Z,99.90
2019-03-08T00:57:03.737Z,99.90
2019-03-08T01:01:08.424Z,99.90
2019-03-08T01:05:13.688Z,99.90
2019-03-08T01:09:18.444Z,99.90
2019-03-08T01:13:22.896Z,99.90
2019-03-08T01:17:27.255Z,99.90
2019-03-08T01:21:32.019Z,99.90
2019-03-08T01:25:36.543Z,99.90
2019-03-08T01:29:41.068Z,99.90
2019-03-08T01:33:45.949Z,99.90
2019-03-08T01:37:50.336Z,99.90
2019-03-08T01:41:54.777Z,99.90
2019-03-08T01:45:59.535Z,99.90
2019-03-08T01:50:04.163Z,99.90
2019-03-08T01:54:08.884Z,99.90
2019-03-08T01:58:13.244Z,99.90
2019-03-08T02:02:17.941Z,99.90
2019-03-08T02:06:22.507Z,99.90
2019-03-08T02:10:27.181Z,99.90
2019-03-08T02:14:31.820Z,99.90
2019-03-08T02:18:36.327Z,99.90
2019-03-08T02:22:40.941Z,99.90
2019-03-08T02:26:45.347Z,99.90
2019-03-08T02:30:49.926Z,99.90
2019-03-08T02:34:54.443Z,99.90
2019-03-08T02:38:59.160Z,99.90
2019-03-08T02:43:05.301Z,99.90
2019-03-08T02:51:13.977Z,99.90
2019-03-08T02:55:18.432Z,99.90
2019-03-08T02:59:23.279Z,99.90
2019-03-08T03:03:27.949Z,99.90
2019-03-08T03:07:32.557Z,99.90
2019-03-08T03:11:37.249Z,99.90
2019-03-08T03:15:41.613Z,99.90
2019-03-08T03:19:45.929Z,99.90
2019-03-08T03:23:50.240Z,99.90
2019-03-08T03:27:54.868Z,99.90
2019-03-08T03:31:59.150Z,99.90
2019-03-08T03:36:03.529Z,99.90
2019-03-08T03:40:09.269Z,99.90
2019-03-08T03:44:15.714Z,99.90
2019-03-08T03:48:20.091Z,99.90
2019-03-08T03:52:24.389Z,99.90
2019-03-08T03:56:28.816Z,99.90
2019-03-08T04:00:33.111Z,99.90
2019-03-08T04:04:37.447Z,99.90
2019-03-08T04:08:41.724Z,99.90
2019-03-08T04:12:46.132Z,99.90
2019-03-08T04:16:50.413Z,99.90
2019-03-08T04:20:54.702Z,99.90
2019-03-08T04:24:59.061Z,99.90
2019-03-08T04:29:03.415Z,99.90
2019-03-08T04:33:07.875Z,99.90
2019-03-08T04:37:12.284Z,99.90
2019-03-08T04:41:16.679Z,99.90
2019-03-08T04:45:20.952Z,99.90
2019-03-08T04:49:25.227Z,99.90
2019-03-08T04:53:29.724Z,99.90
2019-03-08T04:57:34.005Z,99.90
2019-03-08T05:01:38.525Z,99.90
2019-03-08T05:05:42.795Z,99.90
2019-03-08T05:09:47.126Z,99.90
2019-03-08T05:13:51.511Z,99.90
2019-03-08T05:17:55.848Z,99.90
2019-03-08T05:22:00.195Z,99.90
2019-03-08T05:26:04.559Z,99.90
2019-03-08T05:30:09.349Z,99.90
2019-03-08T05:34:13.714Z,99.90
2019-03-08T05:38:18.313Z,99.90
2019-03-08T05:42:22.618Z,99.90
2019-03-08T05:46:27.020Z,99.90
2019-03-08T05:50:31.386Z,99.90
2019-03-08T05:54:36.213Z,99.90
2019-03-08T05:58:40.627Z,99.90
2019-03-08T06:02:45.259Z,99.90
2019-03-08T06:06:49.945Z,99.90
2019-03-08T06:10:54.418Z,99.90
2019-03-08T06:14:59.237Z,99.90
2019-03-08T06:19:03.754Z,99.90
2019-03-08T06:23:08.227Z,99.90
2019-03-08T06:27:12.704Z,99.90
2019-03-08T06:31:17.455Z,99.90
2019-03-08T06:35:22.157Z,99.90
2019-03-08T06:39:26.736Z,99.90
2019-03-08T06:43:31.326Z,99.90
2019-03-08T06:47:35.745Z,99.90
2019-03-08T06:51:40.402Z,99.90
2019-03-08T06:55:45.031Z,99.90
2019-03-08T07:00:03.312Z,99.90
2019-03-08T07:04:07.741Z,99.90
2019-03-08T07:08:13.606Z,99.90
2019-03-08T07:12:18.380Z,99.90
2019-03-08T07:16:22.982Z,99.90
2019-03-08T07:20:34.802Z,99.90
2019-03-08T07:25:07.202Z,99.90
2019-03-08T07:29:39.409Z,99.90
2019-03-08T07:33:59.531Z,99.90
2019-03-08T07:38:21.740Z,99.90
2019-03-08T07:42:44.986Z,99.90
2019-03-08T07:47:07.665Z,99.90
2019-03-08T07:51:34.482Z,99.90
2019-03-08T07:55:51.751Z,99.90
2019-03-08T08:00:21.425Z,99.90
2019-03-08T08:04:37.789Z,99.90
2019-03-08T08:09:01.969Z,99.90
2019-03-08T08:13:23.377Z,99.90
2019-03-08T08:17:34.747Z,99.90
2019-03-08T08:22:06.951Z,99.90
2019-03-08T08:26:33.342Z,99.90
2019-03-08T08:31:08.675Z,99.90
2019-03-08T08:35:32.097Z,99.90
2019-03-08T08:40:14.054Z,99.90
2019-03-08T08:48:58.674Z,99.90
2019-03-08T08:58:22.199Z,99.90
2019-03-08T09:07:35.626Z,99.90
2019-03-08T09:11:53.038Z,99.90
2019-03-08T09:16:19.673Z,99.90
2019-03-08T09:34:41.460Z,99.90
2019-03-08T09:39:07.956Z,99.90
2019-03-08T09:43:40.408Z,99.90
2019-03-08T09:47:51.558Z,99.90
2019-03-08T09:52:21.030Z,99.90
2019-03-08T09:56:43.136Z,99.90
2019-03-08T10:00:59.716Z,99.90
2019-03-08T10:05:23.131Z,99.90
2019-03-08T10:09:44.905Z,99.90
2019-03-08T10:14:08.972Z,99.90
2019-03-08T10:18:32.512Z,99.90
2019-03-08T10:22:54.470Z,99.90
2019-03-08T10:27:20.669Z,99.90
2019-03-08T10:31:50.327Z,99.90
2019-03-08T10:36:13.753Z,99.90
2019-03-08T10:49:55.096Z,99.90
2019-03-08T10:54:26.654Z,99.90
2019-03-08T10:58:38.170Z,99.90
2019-03-08T11:02:58.730Z,99.90
2019-03-08T11:07:17.868Z,99.90
2019-03-08T11:11:39.061Z,99.90
2019-03-08T11:16:05.951Z,99.90
2019-03-08T11:20:25.911Z,99.90
2019-03-08T11:25:08.541Z,99.90
2019-03-08T11:29:32.656Z,99.90
2019-03-08T11:34:03.995Z,99.90
2019-03-08T11:38:17.247Z,99.90
2019-03-08T11:42:41.149Z,99.90
2019-03-08T11:47:04.808Z,99.90
2019-03-08T11:51:26.853Z,99.90
2019-03-08T11:55:50.338Z,99.90
2019-03-08T12:00:19.651Z,99.90
2019-03-08T12:04:46.075Z,99.90
2019-03-08T12:09:18.679Z,99.90
2019-03-08T12:13:30.117Z,99.90
2019-03-08T12:17:43.930Z,99.90
2019-03-08T12:21:55.001Z,99.90
2019-03-08T12:26:14.650Z,99.90
2019-03-08T12:30:38.209Z,99.90
2019-03-08T12:35:04.399Z,99.90
2019-03-08T12:39:30.725Z,99.90
2019-03-08T12:43:51.826Z,99.90
2019-03-08T12:48:23.560Z,99.90
2019-03-08T12:52:39.178Z,99.90
2019-03-08T12:57:17.729Z,99.90
2019-03-08T13:01:39.924Z,99.90
2019-03-08T13:06:06.412Z,99.90
2019-03-08T13:10:13.973Z,99.90
2019-03-08T13:14:18.856Z,99.90
2019-03-08T13:18:23.278Z,99.90
2019-03-08T13:22:27.905Z,99.90
2019-03-08T13:26:32.303Z,99.90
2019-03-08T13:30:36.856Z,98.90
2019-03-08T13:34:41.345Z,99.80
2019-03-08T13:38:45.841Z,98.60
2019-03-08T13:42:50.317Z,99.40
2019-03-08T13:46:54.828Z,98.90
2019-03-08T13:50:59.495Z,99.20
2019-03-08T13:55:04.019Z,98.80
2019-03-08T13:59:08.493Z,99.00
2019-03-08T14:03:12.801Z,98.80
2019-03-08T14:07:17.419Z,98.40
2019-03-08T14:11:27.693Z,98.70
2019-03-08T14:15:32.283Z,98.90
2019-03-08T14:19:36.982Z,98.90
2019-03-08T14:23:43.502Z,98.80
2019-03-08T14:27:47.844Z,99.10
2019-03-08T14:32:14.208Z,99.20
2019-03-08T14:36:18.773Z,99.20
2019-03-08T14:40:43.283Z,99.40
2019-03-08T14:45:03.383Z,99.60
2019-03-08T14:49:09.031Z,99.60
2019-03-08T14:53:13.406Z,99.90
2019-03-08T14:57:26.877Z,99.90
2019-03-08T15:01:24.124Z,99.90
2019-03-08T15:05:28.703Z,99.90
2019-03-08T15:09:33.287Z,99.90
2019-03-08T15:13:37.851Z,99.90
2019-03-08T15:17:45.789Z,99.90
2019-03-08T15:21:50.547Z,99.90
2019-03-08T15:25:55.342Z,99.90
2019-03-08T15:29:59.910Z,99.90
2019-03-08T15:34:04.385Z,99.90
2019-03-08T15:38:10.091Z,99.90
2019-03-08T15:42:14.760Z,99.90
2019-03-08T15:46:22.364Z,99.90
2019-03-08T15:50:25.484Z,99.90
2019-03-08T15:54:30.049Z,99.90
2019-03-08T15:58:34.590Z,99.90
2019-03-08T16:02:39.049Z,99.90
2019-03-08T16:06:45.259Z,99.90
2019-03-08T16:10:49.972Z,99.90
2019-03-08T16:14:54.610Z,99.90
2019-03-08T16:18:59.116Z,99.90
2019-03-08T16:23:06.587Z,99.90
2019-03-08T16:27:09.855Z,99.90
2019-03-08T16:31:26.657Z,99.90
2019-03-08T16:35:38.832Z,99.90
2019-03-08T16:40:08.357Z,99.90
2019-03-08T16:44:31.508Z,99.90
2019-03-08T16:48:44.067Z,99.90
2019-03-08T16:52:59.227Z,99.90
2019-03-08T16:57:26.915Z,99.90
2019-03-08T17:01:42.697Z,99.90
2019-03-08T17:06:06.630Z,99.90
2019-03-08T17:10:24.574Z,99.90
2019-03-08T17:14:44.324Z,99.90
2019-03-08T17:19:11.716Z,99.90
2019-03-08T17:23:31.684Z,99.90
2019-03-08T17:27:43.372Z,99.90
2019-03-08T17:31:56.906Z,99.90
2019-03-08T17:36:18.882Z,99.90
2019-03-08T17:40:48.570Z,99.90
2019-03-08T17:45:00.332Z,99.90
2019-03-08T17:49:27.042Z,99.90
2019-03-08T17:54:05.769Z,99.90
2019-03-08T17:58:23.563Z,99.90
2019-03-08T18:03:28.514Z,99.90
2019-03-08T18:07:55.260Z,99.90
2019-03-08T18:12:30.551Z,99.90
2019-03-08T18:16:53.348Z,99.90
2019-03-08T18:21:16.865Z,99.90
2019-03-08T18:25:55.530Z,99.90
2019-03-08T18:30:10.094Z,99.90
2019-03-08T18:34:32.113Z,99.90
2019-03-08T18:39:10.439Z,99.90
2019-03-08T18:43:33.956Z,99.90
2019-03-08T18:47:55.761Z,99.90
2019-03-08T18:52:37.164Z,99.90
2019-03-08T18:57:03.639Z,99.90
2019-03-08T19:01:36.151Z,99.90
2019-03-08T19:05:55.331Z,99.90
2019-03-08T19:10:17.424Z,99.90
2019-03-08T19:14:39.891Z,99.90
2019-03-08T19:18:57.006Z,99.90
2019-03-08T19:23:11.928Z,99.90
2019-03-08T19:27:40.894Z,99.90
2019-03-08T19:32:01.317Z,99.90
2019-03-08T19:36:42.746Z,99.90
2019-03-08T19:41:06.155Z,99.90
2019-03-08T19:45:33.394Z,99.90
2019-03-08T19:49:57.071Z,99.90
2019-03-08T19:54:23.185Z,99.90
2019-03-08T19:58:44.211Z,99.90
2019-03-08T20:03:07.654Z,99.90
2019-03-08T20:07:28.940Z,99.90
2019-03-08T20:11:50.846Z,99.90
2019-03-08T20:16:12.067Z,99.90
2019-03-08T20:20:35.446Z,99.90
2019-03-08T20:24:57.286Z,99.90
2019-03-08T20:29:29.872Z,99.90
2019-03-08T20:33:56.617Z,99.90
2019-03-08T20:38:18.515Z,99.90
2019-03-08T20:42:37.435Z,99.90
2019-03-08T20:46:52.091Z,99.90
2019-03-08T20:50:56.868Z,99.90
2019-03-08T20:55:06.133Z,99.90
2019-03-08T20:59:10.700Z,99.90
2019-03-08T21:03:16.354Z,99.90
2019-03-08T21:07:22.167Z,99.90
2019-03-08T21:11:26.760Z,99.90
2019-03-08T21:15:31.538Z,99.90
2019-03-08T21:19:36.032Z,99.90
2019-03-08T21:23:40.727Z,99.90
2019-03-08T21:27:45.163Z,99.90
2019-03-08T21:31:49.586Z,99.90
2019-03-08T21:35:54.487Z,99.90
2019-03-08T21:39:58.974Z,99.90
2019-03-08T21:44:03.576Z,99.90
2019-03-08T21:48:08.403Z,99.90
2019-03-08T21:52:12.837Z,99.90
2019-03-08T21:56:17.454Z,99.90
2019-03-08T22:00:23.056Z,99.90
2019-03-08T22:04:50.072Z,99.90
2019-03-08T22:09:05.526Z,99.90
2019-03-08T22:13:10.333Z,99.90
2019-03-08T22:17:15.141Z,99.90
2019-03-08T22:21:19.873Z,99.90
2019-03-08T22:25:25.089Z,99.90
2019-03-08T22:29:29.934Z,99.90
2019-03-08T22:33:35.165Z,99.90
2019-03-08T22:37:39.898Z,99.90
2019-03-08T22:41:44.828Z,99.90
2019-03-08T22:45:49.427Z,99.90
2019-03-08T22:49:54.117Z,99.90
2019-03-08T22:53:58.946Z,99.90
2019-03-08T22:58:03.680Z,99.90
2019-03-08T23:02:10.244Z,99.90
2019-03-08T23:06:15.091Z,99.90
2019-03-08T23:10:19.775Z,99.90
2019-03-08T23:14:24.380Z,99.90
2019-03-08T23:18:28.949Z,99.90
2019-03-08T23:22:33.843Z,99.90
2019-03-08T23:26:56.020Z,99.90
2019-03-08T23:31:05.843Z,99.90
2019-03-08T23:35:10.610Z,99.90
2019-03-08T23:39:15.483Z,99.90
2019-03-08T23:43:20.142Z,99.90
2019-03-08T23:47:24.903Z,99.90
2019-03-08T23:51:29.775Z,99.90
2019-03-08T23:55:34.486Z,99.90
2019-03-08T23:59:39.106Z,99.90
